sensor_id;sensor_type;location;lat;lon;timestamp;pressure;altitude;pressure_sealevel;temperature;humidity
54588;BME280;40484;50.198;19.576;2023-05-23T00:03:32;101479.37;;;20.12;38.21
54588;BME280;40484;50.198;19.576;2023-05-23T00:08:34;101471.81;;;20.11;38.23
54588;BME280;40484;50.198;19.576;2023-05-23T00:13:35;101465.00;;;20.13;38.20
54588;BME280;40484;50.198;19.576;2023-05-23T00:18:39;101465.95;;;20.10;38.21
54588;BME280;40484;50.198;19.576;2023-05-23T00:23:42;101451.71;;;20.13;38.21
54588;BME280;40484;50.198;19.576;2023-05-23T00:28:44;101459.82;;;20.10;38.30
54588;BME280;40484;50.198;19.576;2023-05-23T00:33:46;101450.85;;;19.99;38.38
54588;BME280;40484;50.198;19.576;2023-05-23T00:38:47;101450.39;;;19.78;38.71
54588;BME280;40484;50.198;19.576;2023-05-23T00:43:49;101451.10;;;19.59;39.11
54588;BME280;40484;50.198;19.576;2023-05-23T00:49:17;101447.56;;;19.66;39.09
54588;BME280;40484;50.198;19.576;2023-05-23T00:54:25;101446.22;;;19.61;39.11
54588;BME280;40484;50.198;19.576;2023-05-23T00:59:24;101440.80;;;19.51;39.31
54588;BME280;40484;50.198;19.576;2023-05-23T01:04:26;101432.21;;;19.49;39.19
54588;BME280;40484;50.198;19.576;2023-05-23T01:09:28;101434.79;;;19.39;39.26
54588;BME280;40484;50.198;19.576;2023-05-23T01:14:32;101431.49;;;19.28;39.35
54588;BME280;40484;50.198;19.576;2023-05-23T01:19:48;101426.16;;;19.23;39.43
54588;BME280;40484;50.198;19.576;2023-05-23T01:25:06;101438.05;;;19.11;39.53
54588;BME280;40484;50.198;19.576;2023-05-23T01:30:05;101428.78;;;18.87;39.56
54588;BME280;40484;50.198;19.576;2023-05-23T01:35:09;101419.27;;;18.79;40.03
54588;BME280;40484;50.198;19.576;2023-05-23T01:40:11;101415.49;;;18.78;39.75
54588;BME280;40484;50.198;19.576;2023-05-23T01:45:13;101412.08;;;18.70;39.82
54588;BME280;40484;50.198;19.576;2023-05-23T01:50:15;101413.71;;;18.65;39.97
54588;BME280;40484;50.198;19.576;2023-05-23T01:55:19;101408.57;;;18.67;40.11
54588;BME280;40484;50.198;19.576;2023-05-23T02:00:49;101406.77;;;18.63;40.16
54588;BME280;40484;50.198;19.576;2023-05-23T02:05:51;101410.14;;;18.55;40.33
54588;BME280;40484;50.198;19.576;2023-05-23T02:10:52;101408.82;;;18.40;40.30
54588;BME280;40484;50.198;19.576;2023-05-23T02:15:54;101400.77;;;18.24;40.41
54588;BME280;40484;50.198;19.576;2023-05-23T02:20:55;101404.81;;;18.12;40.69
54588;BME280;40484;50.198;19.576;2023-05-23T02:25:57;101410.21;;;18.05;40.67
54588;BME280;40484;50.198;19.576;2023-05-23T02:30:59;101406.76;;;17.99;40.63
54588;BME280;40484;50.198;19.576;2023-05-23T02:36:00;101411.76;;;17.92;40.82
54588;BME280;40484;50.198;19.576;2023-05-23T02:41:02;101409.91;;;17.80;40.99
54588;BME280;40484;50.198;19.576;2023-05-23T02:46:04;101402.08;;;17.71;41.03
54588;BME280;40484;50.198;19.576;2023-05-23T02:51:06;101398.81;;;17.66;41.07
54588;BME280;40484;50.198;19.576;2023-05-23T02:56:08;101403.68;;;17.52;41.36
54588;BME280;40484;50.198;19.576;2023-05-23T03:01:09;101405.44;;;17.50;41.47
54588;BME280;40484;50.198;19.576;2023-05-23T03:06:12;101402.21;;;17.52;41.52
54588;BME280;40484;50.198;19.576;2023-05-23T03:11:14;101398.51;;;17.50;41.45
54588;BME280;40484;50.198;19.576;2023-05-23T03:16:16;101386.02;;;17.43;41.78
54588;BME280;40484;50.198;19.576;2023-05-23T03:21:17;101393.15;;;17.43;41.90
54588;BME280;40484;50.198;19.576;2023-05-23T03:26:19;101394.35;;;17.46;41.94
54588;BME280;40484;50.198;19.576;2023-05-23T03:31:22;101390.77;;;17.36;42.26
54588;BME280;40484;50.198;19.576;2023-05-23T03:36:24;101389.03;;;17.39;42.33
54588;BME280;40484;50.198;19.576;2023-05-23T03:41:28;101386.10;;;17.39;42.39
54588;BME280;40484;50.198;19.576;2023-05-23T03:46:54;101388.88;;;17.48;42.65
54588;BME280;40484;50.198;19.576;2023-05-23T03:51:56;101385.46;;;17.49;42.80
54588;BME280;40484;50.198;19.576;2023-05-23T03:56:57;101383.29;;;17.65;42.96
54588;BME280;40484;50.198;19.576;2023-05-23T04:01:59;101389.12;;;17.67;43.34
54588;BME280;40484;50.198;19.576;2023-05-23T04:07:01;101381.09;;;17.81;43.66
54588;BME280;40484;50.198;19.576;2023-05-23T04:12:02;101378.50;;;18.03;43.72
54588;BME280;40484;50.198;19.576;2023-05-23T13:37:50;101185.87;;;28.58;28.74
54588;BME280;40484;50.198;19.576;2023-05-23T13:42:52;101196.58;;;28.52;29.13
54588;BME280;40484;50.198;19.576;2023-05-23T13:47:53;101195.48;;;28.46;29.75
54588;BME280;40484;50.198;19.576;2023-05-23T13:52:55;101204.13;;;28.42;29.96
54588;BME280;40484;50.198;19.576;2023-05-23T13:57:56;101213.20;;;28.24;29.60
54588;BME280;40484;50.198;19.576;2023-05-23T14:02:58;101238.30;;;27.64;30.68
54588;BME280;40484;50.198;19.576;2023-05-23T14:07:59;101244.35;;;26.38;33.71
54588;BME280;40484;50.198;19.576;2023-05-23T14:13:01;101245.37;;;25.61;36.72
54588;BME280;40484;50.198;19.576;2023-05-23T14:18:03;101255.30;;;25.23;38.83
54588;BME280;40484;50.198;19.576;2023-05-23T14:23:05;101256.81;;;24.49;40.72
54588;BME280;40484;50.198;19.576;2023-05-23T14:28:06;101250.45;;;24.54;40.44
54588;BME280;40484;50.198;19.576;2023-05-23T14:33:08;101241.17;;;24.73;39.97
54588;BME280;40484;50.198;19.576;2023-05-23T14:38:09;101256.68;;;25.01;39.50
54588;BME280;40484;50.198;19.576;2023-05-23T14:43:11;101242.05;;;25.12;39.85
54588;BME280;40484;50.198;19.576;2023-05-23T14:48:12;101243.04;;;24.78;40.66
54588;BME280;40484;50.198;19.576;2023-05-23T14:53:14;101248.27;;;25.00;40.41
54588;BME280;40484;50.198;19.576;2023-05-23T14:58:16;101241.84;;;25.21;39.33
54588;BME280;40484;50.198;19.576;2023-05-23T15:03:18;101226.90;;;25.45;38.20
54588;BME280;40484;50.198;19.576;2023-05-23T15:08:19;101224.98;;;26.05;37.22
54588;BME280;40484;50.198;19.576;2023-05-23T15:13:21;101211.26;;;26.36;36.22
54588;BME280;40484;50.198;19.576;2023-05-23T15:18:22;101210.13;;;26.76;35.44
54588;BME280;40484;50.198;19.576;2023-05-23T15:23:50;101217.05;;;26.67;35.22
54588;BME280;40484;50.198;19.576;2023-05-23T15:28:52;101217.92;;;26.81;35.83
54588;BME280;40484;50.198;19.576;2023-05-23T15:33:54;101208.19;;;26.83;35.71
54588;BME280;40484;50.198;19.576;2023-05-23T15:38:55;101196.16;;;26.60;36.02
54588;BME280;40484;50.198;19.576;2023-05-23T15:43:57;101205.16;;;26.69;36.78
54588;BME280;40484;50.198;19.576;2023-05-23T15:48:58;101195.89;;;26.78;36.98
54588;BME280;40484;50.198;19.576;2023-05-23T15:54:00;101192.66;;;26.89;37.21
54588;BME280;40484;50.198;19.576;2023-05-23T15:59:01;101182.97;;;26.94;37.11
54588;BME280;40484;50.198;19.576;2023-05-23T16:04:03;101179.59;;;26.97;37.23
54588;BME280;40484;50.198;19.576;2023-05-23T16:09:05;101187.62;;;26.78;37.43
54588;BME280;40484;50.198;19.576;2023-05-23T16:14:06;101183.95;;;26.33;38.77
54588;BME280;40484;50.198;19.576;2023-05-23T16:19:08;101191.02;;;25.81;40.01
54588;BME280;40484;50.198;19.576;2023-05-23T16:24:10;101194.80;;;25.44;40.83
54588;BME280;40484;50.198;19.576;2023-05-23T16:29:12;101193.20;;;25.31;41.23
54588;BME280;40484;50.198;19.576;2023-05-23T16:34:14;101194.09;;;25.10;41.80
54588;BME280;40484;50.198;19.576;2023-05-23T16:39:15;101190.56;;;25.28;41.41
54588;BME280;40484;50.198;19.576;2023-05-23T16:44:17;101189.37;;;25.72;40.73
54588;BME280;40484;50.198;19.576;2023-05-23T16:49:19;101189.80;;;25.95;40.01
54588;BME280;40484;50.198;19.576;2023-05-23T16:54:20;101190.78;;;26.11;40.16
54588;BME280;40484;50.198;19.576;2023-05-23T16:59:22;101198.48;;;26.10;40.57
54588;BME280;40484;50.198;19.576;2023-05-23T17:04:24;101197.09;;;26.01;41.02
54588;BME280;40484;50.198;19.576;2023-05-23T17:09:25;101200.04;;;26.06;40.75
54588;BME280;40484;50.198;19.576;2023-05-23T17:14:51;101203.98;;;26.00;41.57
54588;BME280;40484;50.198;19.576;2023-05-23T17:19:53;101211.26;;;25.76;42.96
54588;BME280;40484;50.198;19.576;2023-05-23T17:24:55;101214.60;;;25.32;44.31
54588;BME280;40484;50.198;19.576;2023-05-23T17:29:56;101226.02;;;24.86;45.62
54588;BME280;40484;50.198;19.576;2023-05-23T17:34:59;101224.95;;;24.74;46.30
54588;BME280;40484;50.198;19.576;2023-05-23T17:40:01;101228.69;;;24.34;48.37
54588;BME280;40484;50.198;19.576;2023-05-23T17:45:03;101232.33;;;24.33;48.67
54588;BME280;40484;50.198;19.576;2023-05-23T17:50:05;101235.26;;;24.05;49.50
54588;BME280;40484;50.198;19.576;2023-05-23T17:55:08;101239.46;;;24.05;49.70
54588;BME280;40484;50.198;19.576;2023-05-23T18:00:10;101240.06;;;24.23;48.98
54588;BME280;40484;50.198;19.576;2023-05-23T18:05:12;101247.42;;;24.37;48.57
54588;BME280;40484;50.198;19.576;2023-05-23T18:10:14;101246.61;;;24.58;48.01
54588;BME280;40484;50.198;19.576;2023-05-23T18:15:17;101242.09;;;24.55;47.92
54588;BME280;40484;50.198;19.576;2023-05-23T18:20:18;101242.07;;;24.60;47.65
54588;BME280;40484;50.198;19.576;2023-05-23T18:25:21;101249.34;;;24.59;47.50
54588;BME280;40484;50.198;19.576;2023-05-23T18:30:25;101257.72;;;24.32;48.13
54588;BME280;40484;50.198;19.576;2023-05-23T18:35:27;101269.12;;;24.24;47.97
54588;BME280;40484;50.198;19.576;2023-05-23T18:40:29;101272.17;;;24.10;48.08
54588;BME280;40484;50.198;19.576;2023-05-23T18:45:31;101279.80;;;23.97;48.01
54588;BME280;40484;50.198;19.576;2023-05-23T18:50:33;101275.00;;;23.91;47.90
54588;BME280;40484;50.198;19.576;2023-05-23T18:55:59;101281.92;;;23.97;47.28
54588;BME280;40484;50.198;19.576;2023-05-23T19:01:01;101281.10;;;23.96;46.99
54588;BME280;40484;50.198;19.576;2023-05-23T19:06:04;101289.10;;;24.07;46.42
54588;BME280;40484;50.198;19.576;2023-05-23T19:11:07;101295.63;;;24.25;45.89
54588;BME280;40484;50.198;19.576;2023-05-23T19:16:10;101293.22;;;24.35;45.40
54588;BME280;40484;50.198;19.576;2023-05-23T19:21:12;101292.32;;;23.97;45.90
54588;BME280;40484;50.198;19.576;2023-05-23T19:26:14;101303.29;;;23.73;46.60
54588;BME280;40484;50.198;19.576;2023-05-23T19:31:16;101302.75;;;23.46;47.62
54588;BME280;40484;50.198;19.576;2023-05-23T19:36:19;101308.61;;;23.43;48.29
54588;BME280;40484;50.198;19.576;2023-05-23T19:41:21;101304.40;;;23.47;48.60
54588;BME280;40484;50.198;19.576;2023-05-23T19:46:22;101310.19;;;23.46;49.02
54588;BME280;40484;50.198;19.576;2023-05-23T19:51:24;101310.82;;;23.50;49.16
54588;BME280;40484;50.198;19.576;2023-05-23T19:56:26;101314.23;;;23.41;49.51
54588;BME280;40484;50.198;19.576;2023-05-23T20:01:29;101316.92;;;23.28;50.00
54588;BME280;40484;50.198;19.576;2023-05-23T20:06:33;101312.06;;;23.28;50.24
54588;BME280;40484;50.198;19.576;2023-05-23T20:11:34;101318.42;;;23.24;50.51
54588;BME280;40484;50.198;19.576;2023-05-23T20:16:36;101320.41;;;23.27;50.57
54588;BME280;40484;50.198;19.576;2023-05-23T20:21:38;101318.27;;;23.54;49.87
54588;BME280;40484;50.198;19.576;2023-05-23T20:26:40;101323.58;;;23.74;49.30
54588;BME280;40484;50.198;19.576;2023-05-23T20:31:41;101320.02;;;23.91;48.70
54588;BME280;40484;50.198;19.576;2023-05-23T20:37:07;101327.66;;;23.99;48.31
